Terminal Aerodrome Forecast
Issued by NWS Wilmington, OH

Current Version | Previous Version | Text Only | Print | Product List | Glossary Off
Versions: 1 2 3 4 5 6 7 8 9 10 11 12 13 14 15 16 17 18 19 20 21 22 23 24 25

682
FTUS41 KILN 020053 AAA
TAFDAY
TAF AMD
KDAY 020053Z 0201/0224 24006KT P6SM VCTS BKN040CB
      TEMPO 0201/0202 24020G30KT 2SM TSRA BR OVC025CB
     FM020300 VRB04KT P6SM VCTS BKN040CB
      TEMPO 0203/0207 4SM -SHRA BR OVC025
     FM020800 29006KT P6SM OVC025
     FM021200 29006KT P6SM OVC015
     FM021500 34006KT P6SM OVC015=

USA.gov is the U.S. government's official web portal to all federal, state and local government web resources and services.